Data for 03/08/2007

Time Sea-Level Adjusted Pressure Absolute Pressure Temperature Relative Humidity Dew Point   
(mb) (inHg) (mb) (inHg) (C) (F) (%) (C) (F)
00:05 1012 29.88 841 24.83 7.5 45.6 41 -4.8 23.3
00:10 1012 29.88 841 24.83 7.5 45.5 42 -4.5 24
00:15 1012 29.88 841 24.83 7.2 44.9 42 -5 23
00:20 1012 29.88 841 24.83 7.5 45.4 42 -4.7 23.5
00:25 1012 29.88 841 24.83 7.7 45.9 41 -4.8 23.3
00:30 1012 29.88 841 24.83 8 46.4 41 -4.6 23.7
00:35 1012 29.88 841 24.83 8.2 46.8 41 -4.4 24.1
00:40 1012 29.88 841 24.83 8 46.5 42 -4.1 24.6
00:45 1012 29.88 841 24.83 7.9 46.1 43 -3.9 25
00:50 1012 29.88 841 24.83 7.7 45.8 44 -3.9 25
00:55 1012 29.88 841 24.83 7.4 45.3 44 -4.1 24.6
01:00 1012 29.88 841 24.83 6.8 44.2 44 -4.6 23.7
01:05 1012 29.88 841 24.83 6.4 43.5 45 -4.7 23.5
01:10 1012 29.88 841 24.83 6.5 43.6 45 -4.7 23.6
01:15 1012 29.88 841 24.83 6.5 43.7 45 -4.6 23.7
01:20 1012 29.88 841 24.83 6.9 44.5 42 -5 22.9
01:25 1012 29.88 841 24.83 7.2 45 42 -4.8 23.4
01:30 1012 29.88 841 24.83 7.2 45 42 -4.9 23.2
01:35 1011 29.85 841 24.83 7.2 44.9 43 -4.4 24
01:40 1011 29.85 841 24.83 7.1 44.8 43 -4.7 23.5
01:45 1011 29.85 841 24.83 7.4 45.3 42 -4.6 23.8
01:50 1012 29.88 841 24.83 7.6 45.6 42 -4.5 23.9
01:55 1011 29.85 841 24.83 7.4 45.4 43 -4.2 24.4
02:00 1011 29.85 841 24.83 7.5 45.4 43 -4.4 24.1
02:05 1011 29.85 841 24.83 7.7 45.8 45 -3.6 25.5
02:10 1011 29.85 840 24.81 7.3 45.1 44 -4.2 24.4
02:15 1011 29.85 840 24.81 7.4 45.3 43 -4.4 24.1
02:20 1011 29.85 840 24.81 7.2 45 45 -3.8 25.2
02:25 1011 29.85 840 24.81 6.8 44.2 45 -4.3 24.2
02:30 1011 29.85 840 24.81 5.9 42.7 48 -4.2 24.4
02:35 1011 29.85 840 24.81 5.8 42.5 48 -4.2 24.5
02:40 1011 29.85 840 24.81 5.9 42.5 49 -4 24.8
02:45 1011 29.85 840 24.81 5.9 42.5 50 -3.8 25.2
02:50 1011 29.85 840 24.81 5.7 42.3 52 -3.5 25.7
02:55 1011 29.85 840 24.81 5.8 42.4 50 -3.8 25.2
03:00 1011 29.85 840 24.81 5.9 42.6 51 -3.4 25.9
03:05 1011 29.85 840 24.81 5.9 42.5 50 -3.8 25.1
03:10 1011 29.85 840 24.81 6 42.8 52 -3.2 26.2
03:15 1011 29.85 840 24.81 5.6 42 50 -3.9 24.9
03:20 1011 29.85 840 24.81 6.3 43.3 48 -4 24.9
03:25 1011 29.85 840 24.81 6.6 43.9 45 -4.3 24.2
03:30 1011 29.85 840 24.81 7.5 45.4 46 -3.4 25.8
03:35 1011 29.85 840 24.81 7.6 45.7 45 -3.5 25.7
03:40 1011 29.85 840 24.81 7.7 45.9 45 -3.5 25.7
03:45 1011 29.85 840 24.81 7.9 46.2 42 -4.1 24.6
03:50 1011 29.85 840 24.81 7.5 45.5 44 -3.9 24.9
03:55 1011 29.85 840 24.81 7.1 44.8 45 -3.9 24.9
04:00 1011 29.85 840 24.81 7.2 44.9 44 -4.2 24.5
04:05 1011 29.85 840 24.81 7.7 45.9 44 -3.8 25.2
04:10 1011 29.85 840 24.81 8 46.4 43 -3.8 25.2
04:15 1011 29.85 840 24.81 8.1 46.6 43 -3.5 25.6
04:20 1011 29.85 840 24.81 8.3 46.9 44 -3.3 26
04:25 1010 29.83 840 24.81 8.8 47.8 43 -3 26.6
04:30 1010 29.83 840 24.81 8.8 47.8 44 -2.8 27
04:35 1010 29.83 840 24.81 8.7 47.6 44 -2.7 27.1
04:40 1010 29.83 840 24.81 8.4 47.2 45 -2.6 27.2
04:45 1010 29.83 840 24.81 8.3 47 45 -2.8 27
04:50 1010 29.83 840 24.81 8.2 46.8 46 -2.6 27.3
04:55 1010 29.83 840 24.81 8.3 46.9 46 -2.6 27.4
05:00 1010 29.83 840 24.81 8.3 46.9 47 -2.5 27.5
05:05 1010 29.83 840 24.81 8.2 46.7 47 -2.4 27.7
05:10 1011 29.85 840 24.81 8 46.5 48 -2.3 27.9
05:15 1010 29.83 840 24.81 7.9 46.2 49 -2.2 28
05:20 1010 29.83 840 24.81 7.3 45.1 51 -2.1 28.2
05:25 1010 29.83 840 24.81 7.1 44.8 51 -2.4 27.7
05:30 1010 29.83 840 24.81 6.6 43.9 53 -2.3 27.9
05:35 1011 29.85 840 24.81 6.4 43.5 53 -2.4 27.6
05:40 1011 29.85 840 24.81 7.3 45.1 50 -2.4 27.6
05:45 1010 29.83 840 24.81 7.5 45.6 50 -2.1 28.2
05:50 1010 29.83 840 24.81 7.4 45.4 51 -1.9 28.5
05:55 1010 29.83 840 24.81 7.1 44.7 53 -2 28.4
06:00 1010 29.83 839 24.78 6.8 44.2 53 -2.1 28.3
06:05 1010 29.83 839 24.78 6.9 44.4 53 -2.1 28.2
06:10 1010 29.83 840 24.81 6.8 44.2 53 -2.2 28
06:15 1010 29.83 840 24.81 6.9 44.3 52 -2.4 27.7
06:20 1010 29.83 840 24.81 6.8 44.2 53 -2.2 28.1
06:25 1010 29.83 840 24.81 6 42.8 55 -2.4 27.7
06:30 1010 29.83 840 24.81 6.1 43 53 -2.8 26.9
06:35 1010 29.83 840 24.81 6.6 43.8 52 -2.6 27.2
06:40 1010 29.83 840 24.81 6.8 44.3 51 -2.7 27.2
06:45 1011 29.85 840 24.81 7.4 45.3 49 -2.6 27.3
06:50 1011 29.85 840 24.81 7.6 45.6 50 -2.3 27.9
06:55 1011 29.85 840 24.81 7.2 44.9 52 -1.9 28.6
07:00 1011 29.85 840 24.81 6.9 44.5 53 -2 28.4
07:05 1011 29.85 840 24.81 6.9 44.4 54 -1.8 28.7
07:10 1011 29.85 840 24.81 6.7 44.1 55 -1.6 29.1
07:15 1011 29.85 840 24.81 6.3 43.4 57 -1.6 29.1
07:20 1011 29.85 841 24.83 6.1 43.1 59 -1.2 29.8
07:25 1012 29.88 841 24.83 5.4 41.6 63 -1 30.2
07:30 1012 29.88 841 24.83 4.3 39.7 71 -0.5 31.1
07:35 1012 29.88 842 24.86 3.4 38.2 77 -0.2 31.6
07:40 1013 29.91 842 24.86 3 37.3 81 -0 31.9
07:45 1013 29.91 842 24.86 2.6 36.6 83 -0 31.9
07:50 1013 29.91 842 24.86 2.5 36.4 82 -0.3 31.5
07:55 1013 29.91 842 24.86 2.5 36.5 81 -0.4 31.3
08:00 1013 29.91 842 24.86 2.6 36.6 80 -0.5 31.2
08:05 1013 29.91 842 24.86 2.5 36.6 81 -0.3 31.4
08:10 1013 29.91 842 24.86 2.4 36.4 82 -0.3 31.5
08:15 1013 29.91 843 24.89 2.3 36.1 84 -0.1 31.8
08:20 1014 29.94 843 24.89 2.1 35.8 86 -0 31.9
08:25 1014 29.94 843 24.89 1.9 35.3 89 0.2 32.4
08:30 1014 29.94 843 24.89 1.5 34.7 92 0.3 32.5
08:35 1014 29.94 843 24.89 1.2 34.2 93 0.3 32.5
08:40 1014 29.94 843 24.89 1.1 33.9 94 0.3 32.5
08:45 1014 29.94 844 24.92 1 33.9 95 0.3 32.5
08:50 1015 29.97 844 24.92 1 33.8 95 0.3 32.5
08:55 1015 29.97 844 24.92 1 33.8 95 0.3 32.5
09:00 1015 29.97 844 24.92 1 33.8 95 0.3 32.6
09:05 1015 29.97 844 24.92 1 33.8 95 0.3 32.6
09:10 1015 29.97 844 24.92 1 33.9 95 0.3 32.6
09:15 1015 29.97 844 24.92 0.9 33.7 95 0.2 32.3
09:20 1015 29.97 844 24.92 0.6 33.1 96 0.1 32.2
09:25 1015 29.97 844 24.92 0.7 33.2 96 0.2 32.3
09:30 1015 29.97 844 24.92 0.7 33.3 96 0.2 32.4
09:35 1015 29.97 844 24.92 0.7 33.3 97 0.2 32.4
09:40 1015 29.97 844 24.92 0.8 33.5 96 0.3 32.5
09:45 1015 29.97 844 24.92 0.9 33.6 96 0.3 32.6
09:50 1015 29.97 844 24.92 0.9 33.7 97 0.5 32.9
09:55 1015 29.97 844 24.92 1.4 34.5 95 0.7 33.2
10:00 1015 29.97 845 24.95 1.7 35 93 0.7 33.3
10:05 1015 29.97 845 24.95 1.7 35 93 0.6 33.2
10:10 1015 29.97 845 24.95 1.7 35.1 92 0.5 32.9
10:15 1015 29.97 844 24.92 1.7 35.1 92 0.5 33
10:20 1015 29.97 844 24.92 1.7 35 92 0.5 32.8
10:25 1015 29.97 844 24.92 1.9 35.5 91 0.6 33.1
10:30 1015 29.97 844 24.92 2.6 36.8 86 0.5 33
10:35 1015 29.97 845 24.95 2.6 36.6 87 0.6 33.1
10:40 1015 29.97 845 24.95 2.9 37.3 85 0.6 33.2
10:45 1015 29.97 845 24.95 3 37.5 86 0.9 33.5
10:50 1016 30 845 24.95 3.4 38.2 82 0.7 33.2
10:55 1016 30 845 24.95 3.5 38.2 82 0.7 33.3
11:00 1016 30 845 24.95 3.9 39 82 1.1 34
11:05 1016 30 845 24.95 4.9 40.8 75 0.9 33.6
11:10 1016 30 845 24.95 5.3 41.6 74 1.1 33.9
11:15 1016 30 845 24.95 5.5 42 71 0.8 33.4
11:20 1016 30 845 24.95 5 41 76 1.1 33.9
11:25 1016 30 845 24.95 4.5 40 77 0.7 33.3
11:30 1016 30 845 24.95 5.1 41.1 74 0.9 33.6
11:35 1016 30 845 24.95 4.7 40.5 76 0.9 33.6
11:40 1016 30 845 24.95 4.2 39.5 80 1 33.8
11:45 1016 30 845 24.95 4.2 39.6 78 0.7 33.2
11:50 1016 30 845 24.95 4.4 39.9 78 1 33.7
11:55 1016 30 845 24.95 4.8 40.6 77 1.1 34
12:00 1016 30 845 24.95 4.1 39.3 79 0.7 33.3
12:05 1016 30 845 24.95 4.3 39.8 77 0.7 33.3
12:10 1016 30 845 24.95 5.1 41.2 74 0.8 33.4
12:15 1016 30 845 24.95 6 42.8 67 0.3 32.5
12:20 1016 30 845 24.95 6.1 42.9 69 0.9 33.6
12:25 1016 30 845 24.95 5.5 41.9 69 0.3 32.5
12:30 1016 30 845 24.95 5.5 41.9 71 0.6 33.1
12:35 1016 30 845 24.95 6.1 43 65 0.1 32.1
12:40 1016 30 845 24.95 7 44.5 64 0.6 33.1
12:45 1016 30 845 24.95 6.4 43.6 67 0.7 33.3
12:50 1016 30 845 24.95 5.1 41.1 69 -0.1 31.9
12:55 1016 30 845 24.95 5.2 41.4 68 -0.1 31.8
13:00 1016 30 845 24.95 6 42.7 65 -0.1 31.8
13:05 1016 30 845 24.95 7 44.6 61 -0 32
13:10 1016 30 845 24.95 6.8 44.2 61 -0.2 31.6
13:15 1015 29.97 845 24.95 7.2 44.9 56 -0.9 30.4
13:20 1015 29.97 845 24.95 6.8 44.3 61 -0.1 31.8
13:25 1015 29.97 845 24.95 6.6 43.8 60 -0.7 30.7
13:30 1016 30 845 24.95 7.1 44.8 60 -0.1 31.9
13:35 1016 30 845 24.95 7.9 46.2 55 -0.7 30.8
13:40 1016 30 845 24.95 8.5 47.4 51 -1 30.2
13:45 1015 29.97 845 24.95 8.8 47.9 52 -0.5 31.1
13:50 1015 29.97 845 24.95 8.7 47.6 51 -1 30.2
13:55 1015 29.97 845 24.95 9.1 48.3 49 -1 30.2
14:00 1015 29.97 845 24.95 8.8 47.8 47 -1.8 28.7
14:05 1015 29.97 845 24.95 8.6 47.5 50 -1.1 30
14:10 1015 29.97 845 24.95 8 46.4 50 -1.7 29
14:15 1015 29.97 845 24.95 7.6 45.6 49 -2.3 27.8
14:20 1015 29.97 845 24.95 7.3 45.1 49 -2.7 27.2
14:25 1015 29.97 845 24.95 7.7 45.9 49 -2.4 27.7
14:30 1016 30 845 24.95 9 48.1 42 -3.1 26.4
14:35 1016 30 845 24.95 8 46.3 47 -2.5 27.4
14:40 1015 29.97 845 24.95 7.6 45.6 48 -2.6 27.3
14:45 1015 29.97 845 24.95 8.5 47.3 45 -2.7 27.2
14:50 1015 29.97 845 24.95 8.9 47.9 44 -2.8 27
14:55 1015 29.97 845 24.95 9.8 49.6 39 -3.4 25.9
15:00 1015 29.97 845 24.95 9 48.2 48 -1.5 29.2
15:05 1015 29.97 845 24.95 8 46.3 48 -2.2 28
15:10 1015 29.97 845 24.95 8 46.4 46 -3 26.6
15:15 1015 29.97 845 24.95 8 46.5 46 -2.8 27
15:20 1015 29.97 845 24.95 7.9 46.3 45 -3.2 26.2
15:25 1015 29.97 845 24.95 8.9 48 35 -5.7 21.8
15:30 1015 29.97 845 24.95 9.5 49.1 41 -3.1 26.4
15:35 1015 29.97 845 24.95 9.8 49.6 38 -3.7 25.3
15:40 1015 29.97 845 24.95 10.2 50.4 34 -4.8 23.3
15:45 1015 29.97 845 24.95 10.5 50.9 32 -5.4 22.3
15:50 1015 29.97 845 24.95 10.2 50.3 32 -5.8 21.5
15:55 1015 29.97 845 24.95 10 49.9 33 -5.5 22.1
16:00 1015 29.97 845 24.95 10.1 50.1 31 -6.2 20.9
16:05 1015 29.97 845 24.95 10.5 50.8 32 -5.7 21.8
16:10 1016 30 845 24.95 10.8 51.4 31 -5.5 22.1
16:15 1016 30 845 24.95 10.6 51.1 31 -5.8 21.6
16:20 1016 30 845 24.95 10.6 51.2 28 -6.9 19.6
16:25 1016 30 845 24.95 10.3 50.6 28 -7.3 18.9
16:30 1016 30 845 24.95 10.5 51 29 -6.9 19.5
16:35 1016 30 845 24.95 10.3 50.5 29 -7 19.5
16:40 1016 30 845 24.95 10.2 50.3 28 -7.5 18.5
16:45 1016 30 845 24.95 9.8 49.7 27 -8.1 17.4
16:50 1016 30 845 24.95 9.5 49.1 27 -8.5 16.6
16:55 1016 30 845 24.95 9.3 48.7 27 -9 15.8
17:00 1016 30 845 24.95 9.3 48.7 27 -8.7 16.3
17:05 1016 30 845 24.95 9.4 48.9 27 -8.5 16.7
17:10 1016 30 845 24.95 9.3 48.7 27 -8.6 16.5
17:15 1016 30 845 24.95 9.1 48.4 27 -8.8 16.1
17:20 1016 30 845 24.95 9 48.2 29 -8.2 17.3
17:25 1016 30 845 24.95 8.8 47.8 29 -8.2 17.2
17:30 1016 30 845 24.95 8.8 47.9 30 -8 17.6
17:35 1016 30 845 24.95 8.4 47.2 30 -8.2 17.2
17:40 1016 30 845 24.95 8.1 46.6 31 -8.1 17.5
17:45 1016 30 845 24.95 8.1 46.6 32 -7.6 18.3
17:50 1016 30 845 24.95 7.9 46.2 34 -7 19.3
17:55 1016 30 845 24.95 7.5 45.5 35 -7.1 19.2
18:00 1016 30 845 24.95 7 44.7 35 -7.4 18.7
18:05 1016 30 845 24.95 6.7 44 37 -7 19.5
18:10 1016 30 845 24.95 6.3 43.3 37 -7.2 19
18:15 1016 30 845 24.95 6.1 43 37 -7.6 18.4
18:20 1016 30 845 24.95 6.1 43 37 -7.5 18.5
18:25 1016 30 845 24.95 6.1 43 36 -8 17.7
18:30 1016 30 845 24.95 6.2 43.1 35 -8 17.6
18:35 1016 30 845 24.95 6.3 43.3 35 -8 17.6
18:40 1016 30 845 24.95 6.3 43.4 35 -8.1 17.3
18:45 1016 30 846 24.98 5.7 42.3 39 -7 19.4
18:50 1016 30 846 24.98 4.9 40.9 40 -7.6 18.3
18:55 1017 30.03 846 24.98 5 41 40 -7.5 18.5
19:00 1017 30.03 846 24.98 5 41 40 -7.5 18.5
19:05 1017 30.03 846 24.98 4.9 40.9 39 -7.9 17.7
19:10 1017 30.03 846 24.98 4.9 40.9 42 -7.1 19.3
19:15 1017 30.03 846 24.98 4.1 39.4 45 -6.9 19.6
19:20 1017 30.03 846 24.98 3.8 38.9 45 -7.1 19.3
19:25 1017 30.03 846 24.98 3.8 38.9 46 -6.8 19.8
19:30 1017 30.03 846 24.98 3.7 38.6 44 -7.4 18.7
19:35 1017 30.03 846 24.98 4.1 39.4 41 -8 17.5
19:40 1017 30.03 846 24.98 4.6 40.2 39 -8.1 17.5
19:45 1017 30.03 846 24.98 4.8 40.6 38 -8.2 17.2
19:50 1017 30.03 846 24.98 5 41.1 38 -8.1 17.5
19:55 1017 30.03 846 24.98 5.1 41.1 41 -7.2 19
20:00 1017 30.03 846 24.98 4.7 40.4 43 -7 19.5
20:05 1017 30.03 846 24.98 4.5 40 43 -7.2 19.1
20:10 1017 30.03 846 24.98 4.4 39.9 44 -7 19.5
20:15 1017 30.03 846 24.98 3.8 38.9 43 -7.7 18.1
20:20 1017 30.03 846 24.98 4.3 39.7 40 -8.2 17.3
20:25 1017 30.03 846 24.98 4.7 40.4 38 -8.4 16.9
20:30 1017 30.03 846 24.98 4.8 40.6 39 -8.1 17.4
20:35 1017 30.03 846 24.98 5 41 34 -9.6 14.7
20:40 1017 30.03 846 24.98 5.6 42.1 32 -9.8 14.3
20:45 1017 30.03 846 24.98 5.7 42.3 34 -8.8 16.2
20:50 1017 30.03 846 24.98 4.9 40.9 42 -6.8 19.7
20:55 1017 30.03 846 24.98 3.5 38.3 45 -7.4 18.7
21:00 1017 30.03 846 24.98 2.9 37.3 44 -8 17.6
21:05 1017 30.03 846 24.98 3.1 37.6 44 -7.9 17.7
21:10 1017 30.03 846 24.98 3.3 38 42 -8.3 17.1
21:15 1017 30.03 846 24.98 3.8 38.9 40 -8.6 16.6
21:20 1017 30.03 846 24.98 3.7 38.6 43 -7.7 18.2
21:25 1017 30.03 846 24.98 2.8 37 49 -6.9 19.7
21:30 1017 30.03 846 24.98 2.7 36.8 44 -8.5 16.7
21:35 1017 30.03 846 24.98 3.5 38.4 36 -10.3 13.4
21:40 1017 30.03 846 24.98 4.7 40.5 36 -9 15.8
21:45 1017 30.03 846 24.98 4.7 40.5 35 -9.4 15.1
21:50 1017 30.03 846 24.98 4.2 39.6 47 -6.3 20.7
21:55 1017 30.03 846 24.98 2.6 36.7 49 -6.9 19.6
22:00 1017 30.03 846 24.98 2.5 36.4 52 -6.4 20.5
22:05 1017 30.03 846 24.98 2.1 35.7 50 -7.3 18.8
22:10 1017 30.03 846 24.98 2.1 35.9 49 -7.6 18.4
22:15 1017 30.03 846 24.98 2.1 35.8 49 -7.5 18.5
22:20 1017 30.03 846 24.98 2.5 36.5 47 -7.7 18.1
22:25 1017 30.03 846 24.98 2.9 37.2 47 -7.4 18.6
22:30 1017 30.03 846 24.98 2.7 36.9 50 -6.6 20.1
22:35 1017 30.03 846 24.98 2.4 36.4 46 -8 17.7
22:40 1017 30.03 846 24.98 2.3 36.1 50 -7.2 19.1
22:45 1017 30.03 846 24.98 2.1 35.8 49 -7.4 18.6
22:50 1017 30.03 846 24.98 2 35.5 53 -6.7 19.9
22:55 1017 30.03 846 24.98 1.7 35.1 53 -6.9 19.6
23:00 1017 30.03 846 24.98 1.1 33.9 56 -6.7 20
23:05 1017 30.03 846 24.98 0.8 33.5 58 -6.5 20.3
23:10 1017 30.03 846 24.98 0.7 33.3 59 -6.3 20.6
23:15 1016 30 846 24.98 0.5 33 61 -6.2 20.8
23:20 1016 30 846 24.98 0.3 32.6 61 -6.2 20.8
23:25 1016 30 846 24.98 0.3 32.5 63 -5.9 21.3
23:30 1016 30 845 24.95 0.4 32.7 60 -6.5 20.4
23:35 1016 30 845 24.95 0.4 32.7 62 -6.1 21
23:40 1016 30 845 24.95 0.4 32.7 59 -6.6 20.1
23:45 1016 30 845 24.95 0.8 33.4 56 -7 19.5
23:50 1016 30 845 24.95 1.1 34 54 -7.3 18.9
23:55 1016 30 845 24.95 1.3 34.3 53 -7.3 18.9
24:00 1016 30 845 24.95 1.4 34.4 53 -7.3 18.9